sensor_id;sensor_type;location;lat;lon;timestamp;P1;durP1;ratioP1;P2;durP2;ratioP2
55078;SDS011;55187;49.496;6.010;2022-10-16T00:02:15;5.03;;;1.67;;
55078;SDS011;55187;49.496;6.010;2022-10-16T00:04:41;8.40;;;1.95;;
55078;SDS011;55187;49.496;6.010;2022-10-16T00:07:08;3.40;;;1.35;;
55078;SDS011;55187;49.496;6.010;2022-10-16T00:09:34;1.95;;;1.20;;
55078;SDS011;55187;49.496;6.010;2022-10-16T00:12:01;1.48;;;1.30;;
55078;SDS011;55187;49.496;6.010;2022-10-16T00:14:27;1.15;;;1.05;;
55078;SDS011;55187;49.496;6.010;2022-10-16T00:16:53;1.35;;;0.88;;
55078;SDS011;55187;49.496;6.010;2022-10-16T00:19:19;1.88;;;1.38;;
55078;SDS011;55187;49.496;6.010;2022-10-16T00:21:46;2.03;;;1.15;;
55078;SDS011;55187;49.496;6.010;2022-10-16T00:24:24;1.67;;;1.00;;
55078;SDS011;55187;49.496;6.010;2022-10-16T00:26:50;7.25;;;1.30;;
55078;SDS011;55187;49.496;6.010;2022-10-16T00:29:17;1.88;;;1.00;;
55078;SDS011;55187;49.496;6.010;2022-10-16T00:31:43;1.50;;;0.82;;
55078;SDS011;55187;49.496;6.010;2022-10-16T00:34:10;2.88;;;0.75;;
55078;SDS011;55187;49.496;6.010;2022-10-16T00:36:36;1.40;;;0.40;;
55078;SDS011;55187;49.496;6.010;2022-10-16T00:39:03;2.75;;;0.77;;
55078;SDS011;55187;49.496;6.010;2022-10-16T00:41:30;3.47;;;0.65;;
55078;SDS011;55187;49.496;6.010;2022-10-16T00:43:58;1.80;;;0.73;;
55078;SDS011;55187;49.496;6.010;2022-10-16T00:46:27;1.85;;;0.50;;
55078;SDS011;55187;49.496;6.010;2022-10-16T00:49:05;1.17;;;0.85;;
55078;SDS011;55187;49.496;6.010;2022-10-16T00:51:36;0.43;;;0.43;;
55078;SDS011;55187;49.496;6.010;2022-10-16T00:54:06;2.88;;;0.50;;
55078;SDS011;55187;49.496;6.010;2022-10-16T00:56:38;0.68;;;0.60;;
55078;SDS011;55187;49.496;6.010;2022-10-16T00:59:06;0.47;;;0.40;;
55078;SDS011;55187;49.496;6.010;2022-10-16T01:01:40;4.15;;;0.63;;
55078;SDS011;55187;49.496;6.010;2022-10-16T01:04:07;6.93;;;0.68;;
55078;SDS011;55187;49.496;6.010;2022-10-16T01:06:40;1.00;;;0.60;;
55078;SDS011;55187;49.496;6.010;2022-10-16T01:09:23;1.70;;;0.40;;
55078;SDS011;55187;49.496;6.010;2022-10-16T01:12:12;0.70;;;0.45;;
55078;SDS011;55187;49.496;6.010;2022-10-16T01:14:54;1.38;;;0.63;;
55078;SDS011;55187;49.496;6.010;2022-10-16T01:17:28;0.93;;;0.60;;
55078;SDS011;55187;49.496;6.010;2022-10-16T01:20:07;0.50;;;0.40;;
55078;SDS011;55187;49.496;6.010;2022-10-16T01:22:43;4.50;;;0.95;;
55078;SDS011;55187;49.496;6.010;2022-10-16T01:28:11;0.85;;;0.50;;
55078;SDS011;55187;49.496;6.010;2022-10-16T01:30:40;2.20;;;0.75;;
55078;SDS011;55187;49.496;6.010;2022-10-16T01:33:10;2.30;;;0.50;;
55078;SDS011;55187;49.496;6.010;2022-10-16T01:35:50;0.98;;;0.68;;
55078;SDS011;55187;49.496;6.010;2022-10-16T01:38:29;0.57;;;0.40;;
55078;SDS011;55187;49.496;6.010;2022-10-16T01:41:09;7.15;;;0.80;;
55078;SDS011;55187;49.496;6.010;2022-10-16T01:43:53;1.55;;;0.75;;
55078;SDS011;55187;49.496;6.010;2022-10-16T01:46:25;3.97;;;0.68;;
55078;SDS011;55187;49.496;6.010;2022-10-16T01:48:53;2.65;;;0.65;;
55078;SDS011;55187;49.496;6.010;2022-10-16T01:51:21;0.57;;;0.40;;
55078;SDS011;55187;49.496;6.010;2022-10-16T01:53:52;3.17;;;0.43;;
55078;SDS011;55187;49.496;6.010;2022-10-16T01:56:21;1.05;;;0.90;;
55078;SDS011;55187;49.496;6.010;2022-10-16T01:58:57;0.30;;;0.30;;
55078;SDS011;55187;49.496;6.010;2022-10-16T02:01:33;1.60;;;0.60;;
55078;SDS011;55187;49.496;6.010;2022-10-16T02:04:07;1.00;;;0.70;;
55078;SDS011;55187;49.496;6.010;2022-10-16T02:06:37;0.38;;;0.38;;
55078;SDS011;55187;49.496;6.010;2022-10-16T02:09:04;4.68;;;0.57;;
55078;SDS011;55187;49.496;6.010;2022-10-16T02:11:30;0.38;;;0.32;;
55078;SDS011;55187;49.496;6.010;2022-10-16T02:13:59;1.90;;;0.70;;
55078;SDS011;55187;49.496;6.010;2022-10-16T02:16:34;0.68;;;0.43;;
55078;SDS011;55187;49.496;6.010;2022-10-16T02:19:04;4.72;;;0.90;;
55078;SDS011;55187;49.496;6.010;2022-10-16T02:21:42;9.65;;;1.00;;
55078;SDS011;55187;49.496;6.010;2022-10-16T02:24:24;1.10;;;0.73;;
55078;SDS011;55187;49.496;6.010;2022-10-16T02:27:17;1.50;;;0.55;;
55078;SDS011;55187;49.496;6.010;2022-10-16T02:30:03;0.73;;;0.47;;
55078;SDS011;55187;49.496;6.010;2022-10-16T02:32:36;6.72;;;0.85;;
55078;SDS011;55187;49.496;6.010;2022-10-16T02:35:06;1.85;;;0.88;;
55078;SDS011;55187;49.496;6.010;2022-10-16T02:37:34;6.53;;;0.68;;
55078;SDS011;55187;49.496;6.010;2022-10-16T02:40:02;1.92;;;0.55;;
55078;SDS011;55187;49.496;6.010;2022-10-16T02:42:34;0.65;;;0.45;;
55078;SDS011;55187;49.496;6.010;2022-10-16T02:45:03;3.78;;;0.73;;
55078;SDS011;55187;49.496;6.010;2022-10-16T02:47:30;5.30;;;0.77;;
55078;SDS011;55187;49.496;6.010;2022-10-16T02:49:57;1.67;;;0.57;;
55078;SDS011;55187;49.496;6.010;2022-10-16T02:52:23;10.45;;;0.60;;
55078;SDS011;55187;49.496;6.010;2022-10-16T02:54:50;3.90;;;0.55;;
55078;SDS011;55187;49.496;6.010;2022-10-16T02:57:16;0.60;;;0.60;;
55078;SDS011;55187;49.496;6.010;2022-10-16T02:59:43;0.50;;;0.50;;
55078;SDS011;55187;49.496;6.010;2022-10-16T03:02:10;8.30;;;0.82;;
55078;SDS011;55187;49.496;6.010;2022-10-16T03:04:40;0.65;;;0.50;;
55078;SDS011;55187;49.496;6.010;2022-10-16T03:07:06;5.15;;;0.60;;
55078;SDS011;55187;49.496;6.010;2022-10-16T03:09:33;1.35;;;0.63;;
55078;SDS011;55187;49.496;6.010;2022-10-16T03:12:00;0.80;;;0.70;;
55078;SDS011;55187;49.496;6.010;2022-10-16T03:14:26;1.58;;;0.43;;
55078;SDS011;55187;49.496;6.010;2022-10-16T03:16:52;4.88;;;0.75;;
55078;SDS011;55187;49.496;6.010;2022-10-16T03:19:19;0.88;;;0.60;;
55078;SDS011;55187;49.496;6.010;2022-10-16T03:21:45;0.40;;;0.40;;
55078;SDS011;55187;49.496;6.010;2022-10-16T03:24:11;1.10;;;0.57;;
55078;SDS011;55187;49.496;6.010;2022-10-16T03:26:38;0.45;;;0.40;;
55078;SDS011;55187;49.496;6.010;2022-10-16T03:29:04;3.17;;;0.60;;
55078;SDS011;55187;49.496;6.010;2022-10-16T03:31:31;0.90;;;0.50;;
55078;SDS011;55187;49.496;6.010;2022-10-16T03:33:57;2.72;;;1.20;;
55078;SDS011;55187;49.496;6.010;2022-10-16T03:36:24;0.95;;;0.52;;
55078;SDS011;55187;49.496;6.010;2022-10-16T03:38:50;5.57;;;1.05;;
55078;SDS011;55187;49.496;6.010;2022-10-16T03:41:16;1.27;;;0.60;;
55078;SDS011;55187;49.496;6.010;2022-10-16T03:43:43;1.38;;;0.98;;
55078;SDS011;55187;49.496;6.010;2022-10-16T03:46:09;1.48;;;0.68;;
55078;SDS011;55187;49.496;6.010;2022-10-16T03:48:38;1.92;;;1.08;;
55078;SDS011;55187;49.496;6.010;2022-10-16T03:51:05;1.25;;;0.65;;
55078;SDS011;55187;49.496;6.010;2022-10-16T03:53:32;0.95;;;0.73;;
55078;SDS011;55187;49.496;6.010;2022-10-16T03:55:59;0.50;;;0.50;;
55078;SDS011;55187;49.496;6.010;2022-10-16T03:58:26;3.90;;;0.50;;
55078;SDS011;55187;49.496;6.010;2022-10-16T04:00:52;0.93;;;0.40;;
55078;SDS011;55187;49.496;6.010;2022-10-16T04:03:18;3.25;;;0.70;;
55078;SDS011;55187;49.496;6.010;2022-10-16T04:05:45;0.95;;;0.68;;
55078;SDS011;55187;49.496;6.010;2022-10-16T04:08:11;3.13;;;0.70;;
55078;SDS011;55187;49.496;6.010;2022-10-16T04:10:37;0.95;;;0.65;;
55078;SDS011;55187;49.496;6.010;2022-10-16T04:13:03;0.70;;;0.47;;
55078;SDS011;55187;49.496;6.010;2022-10-16T04:15:30;1.00;;;0.80;;
55078;SDS011;55187;49.496;6.010;2022-10-16T04:17:56;3.42;;;1.20;;
55078;SDS011;55187;49.496;6.010;2022-10-16T04:20:23;1.23;;;0.40;;
55078;SDS011;55187;49.496;6.010;2022-10-16T04:22:49;3.20;;;0.95;;
55078;SDS011;55187;49.496;6.010;2022-10-16T04:25:15;2.42;;;0.80;;
55078;SDS011;55187;49.496;6.010;2022-10-16T04:27:45;3.30;;;1.88;;
55078;SDS011;55187;49.496;6.010;2022-10-16T04:30:11;4.32;;;0.90;;
55078;SDS011;55187;49.496;6.010;2022-10-16T04:32:38;4.45;;;1.15;;
55078;SDS011;55187;49.496;6.010;2022-10-16T04:35:05;0.90;;;0.50;;
55078;SDS011;55187;49.496;6.010;2022-10-16T04:37:32;4.47;;;0.80;;
55078;SDS011;55187;49.496;6.010;2022-10-16T04:39:58;1.13;;;0.50;;
55078;SDS011;55187;49.496;6.010;2022-10-16T04:42:25;0.47;;;0.40;;
55078;SDS011;55187;49.496;6.010;2022-10-16T04:44:51;2.75;;;0.70;;
55078;SDS011;55187;49.496;6.010;2022-10-16T04:47:17;0.60;;;0.40;;
55078;SDS011;55187;49.496;6.010;2022-10-16T04:49:44;1.45;;;0.63;;
55078;SDS011;55187;49.496;6.010;2022-10-16T04:52:10;7.25;;;0.70;;
55078;SDS011;55187;49.496;6.010;2022-10-16T04:54:37;3.90;;;0.75;;
55078;SDS011;55187;49.496;6.010;2022-10-16T04:57:03;2.08;;;0.63;;
55078;SDS011;55187;49.496;6.010;2022-10-16T04:59:30;0.45;;;0.40;;
55078;SDS011;55187;49.496;6.010;2022-10-16T05:01:56;1.95;;;0.90;;
55078;SDS011;55187;49.496;6.010;2022-10-16T05:04:23;1.08;;;0.73;;
55078;SDS011;55187;49.496;6.010;2022-10-16T05:06:49;0.80;;;0.47;;
55078;SDS011;55187;49.496;6.010;2022-10-16T05:09:16;14.93;;;0.65;;
55078;SDS011;55187;49.496;6.010;2022-10-16T05:11:42;0.43;;;0.30;;
55078;SDS011;55187;49.496;6.010;2022-10-16T05:14:08;6.28;;;0.70;;
55078;SDS011;55187;49.496;6.010;2022-10-16T05:16:35;0.40;;;0.40;;
55078;SDS011;55187;49.496;6.010;2022-10-16T05:19:01;0.73;;;0.38;;
55078;SDS011;55187;49.496;6.010;2022-10-16T05:21:27;7.28;;;0.70;;
55078;SDS011;55187;49.496;6.010;2022-10-16T05:23:54;2.78;;;0.80;;
55078;SDS011;55187;49.496;6.010;2022-10-16T05:26:21;0.75;;;0.43;;
55078;SDS011;55187;49.496;6.010;2022-10-16T05:28:47;2.33;;;0.52;;
55078;SDS011;55187;49.496;6.010;2022-10-16T05:31:15;0.77;;;0.40;;
55078;SDS011;55187;49.496;6.010;2022-10-16T05:33:42;0.70;;;0.52;;
55078;SDS011;55187;49.496;6.010;2022-10-16T05:36:11;1.58;;;0.47;;
55078;SDS011;55187;49.496;6.010;2022-10-16T05:38:38;2.97;;;0.52;;
55078;SDS011;55187;49.496;6.010;2022-10-16T05:41:05;0.40;;;0.40;;
55078;SDS011;55187;49.496;6.010;2022-10-16T05:43:31;0.52;;;0.50;;
55078;SDS011;55187;49.496;6.010;2022-10-16T05:46:00;1.70;;;0.50;;
55078;SDS011;55187;49.496;6.010;2022-10-16T05:48:29;1.10;;;0.47;;
55078;SDS011;55187;49.496;6.010;2022-10-16T05:50:59;2.22;;;0.82;;
55078;SDS011;55187;49.496;6.010;2022-10-16T05:53:28;1.67;;;0.50;;
55078;SDS011;55187;49.496;6.010;2022-10-16T05:55:56;2.50;;;0.45;;
55078;SDS011;55187;49.496;6.010;2022-10-16T05:58:25;8.80;;;0.73;;
55078;SDS011;55187;49.496;6.010;2022-10-16T06:01:07;0.70;;;0.50;;
55078;SDS011;55187;49.496;6.010;2022-10-16T06:03:37;2.42;;;0.65;;
55078;SDS011;55187;49.496;6.010;2022-10-16T06:06:07;1.08;;;0.40;;
55078;SDS011;55187;49.496;6.010;2022-10-16T06:08:39;0.82;;;0.60;;
55078;SDS011;55187;49.496;6.010;2022-10-16T06:11:08;2.83;;;0.80;;
55078;SDS011;55187;49.496;6.010;2022-10-16T06:13:37;2.80;;;1.27;;
55078;SDS011;55187;49.496;6.010;2022-10-16T06:16:04;2.90;;;0.93;;
55078;SDS011;55187;49.496;6.010;2022-10-16T06:18:31;1.20;;;0.88;;
55078;SDS011;55187;49.496;6.010;2022-10-16T06:20:58;11.63;;;1.20;;
55078;SDS011;55187;49.496;6.010;2022-10-16T06:23:25;1.13;;;0.55;;
55078;SDS011;55187;49.496;6.010;2022-10-16T06:25:53;1.00;;;0.70;;
55078;SDS011;55187;49.496;6.010;2022-10-16T06:28:20;6.15;;;0.95;;
55078;SDS011;55187;49.496;6.010;2022-10-16T06:30:46;2.67;;;0.98;;
55078;SDS011;55187;49.496;6.010;2022-10-16T06:33:14;1.10;;;0.50;;
55078;SDS011;55187;49.496;6.010;2022-10-16T06:35:40;1.20;;;1.02;;
55078;SDS011;55187;49.496;6.010;2022-10-16T06:38:07;0.82;;;0.70;;
55078;SDS011;55187;49.496;6.010;2022-10-16T06:40:33;1.90;;;0.93;;
55078;SDS011;55187;49.496;6.010;2022-10-16T06:43:00;1.55;;;1.20;;
55078;SDS011;55187;49.496;6.010;2022-10-16T06:45:27;1.58;;;0.85;;
55078;SDS011;55187;49.496;6.010;2022-10-16T06:47:53;1.77;;;0.82;;
55078;SDS011;55187;49.496;6.010;2022-10-16T06:50:20;7.53;;;0.73;;
55078;SDS011;55187;49.496;6.010;2022-10-16T06:52:46;1.48;;;0.70;;
55078;SDS011;55187;49.496;6.010;2022-10-16T06:55:13;2.80;;;0.90;;
55078;SDS011;55187;49.496;6.010;2022-10-16T06:57:40;4.22;;;0.90;;
55078;SDS011;55187;49.496;6.010;2022-10-16T07:00:08;1.10;;;0.50;;
55078;SDS011;55187;49.496;6.010;2022-10-16T07:02:35;0.77;;;0.63;;
55078;SDS011;55187;49.496;6.010;2022-10-16T07:05:01;2.75;;;1.08;;
55078;SDS011;55187;49.496;6.010;2022-10-16T07:07:28;2.80;;;0.60;;
55078;SDS011;55187;49.496;6.010;2022-10-16T07:09:54;3.17;;;0.50;;
55078;SDS011;55187;49.496;6.010;2022-10-16T07:12:21;1.65;;;0.85;;
55078;SDS011;55187;49.496;6.010;2022-10-16T07:14:47;2.67;;;0.73;;
55078;SDS011;55187;49.496;6.010;2022-10-16T07:17:13;2.15;;;0.52;;
55078;SDS011;55187;49.496;6.010;2022-10-16T07:19:40;1.33;;;0.90;;
55078;SDS011;55187;49.496;6.010;2022-10-16T07:22:06;2.50;;;0.77;;
55078;SDS011;55187;49.496;6.010;2022-10-16T07:24:32;2.20;;;0.60;;
55078;SDS011;55187;49.496;6.010;2022-10-16T07:26:59;2.42;;;0.60;;
55078;SDS011;55187;49.496;6.010;2022-10-16T07:29:25;4.95;;;0.88;;
55078;SDS011;55187;49.496;6.010;2022-10-16T07:31:52;0.85;;;0.60;;
55078;SDS011;55187;49.496;6.010;2022-10-16T07:34:19;5.80;;;0.68;;
55078;SDS011;55187;49.496;6.010;2022-10-16T07:36:51;1.33;;;0.35;;
55078;SDS011;55187;49.496;6.010;2022-10-16T07:39:17;1.45;;;0.70;;
55078;SDS011;55187;49.496;6.010;2022-10-16T07:41:44;2.58;;;0.57;;
55078;SDS011;55187;49.496;6.010;2022-10-16T07:44:10;1.45;;;0.55;;
55078;SDS011;55187;49.496;6.010;2022-10-16T07:46:37;0.95;;;0.73;;
55078;SDS011;55187;49.496;6.010;2022-10-16T07:49:03;0.57;;;0.40;;
55078;SDS011;55187;49.496;6.010;2022-10-16T07:51:29;1.38;;;0.70;;
55078;SDS011;55187;49.496;6.010;2022-10-16T07:53:56;2.28;;;0.70;;
55078;SDS011;55187;49.496;6.010;2022-10-16T07:56:23;0.60;;;0.57;;
55078;SDS011;55187;49.496;6.010;2022-10-16T07:58:50;5.38;;;0.50;;
55078;SDS011;55187;49.496;6.010;2022-10-16T08:01:17;1.35;;;0.57;;
55078;SDS011;55187;49.496;6.010;2022-10-16T08:03:45;1.40;;;0.73;;
55078;SDS011;55187;49.496;6.010;2022-10-16T08:06:16;1.30;;;0.57;;
55078;SDS011;55187;49.496;6.010;2022-10-16T08:08:43;0.90;;;0.50;;
55078;SDS011;55187;49.496;6.010;2022-10-16T08:11:10;3.10;;;0.70;;
55078;SDS011;55187;49.496;6.010;2022-10-16T08:13:36;2.47;;;0.93;;
55078;SDS011;55187;49.496;6.010;2022-10-16T08:16:03;1.77;;;1.00;;
55078;SDS011;55187;49.496;6.010;2022-10-16T08:18:37;3.60;;;0.90;;
55078;SDS011;55187;49.496;6.010;2022-10-16T08:21:07;2.50;;;0.68;;
55078;SDS011;55187;49.496;6.010;2022-10-16T08:23:38;3.42;;;1.08;;
55078;SDS011;55187;49.496;6.010;2022-10-16T08:26:05;5.25;;;2.05;;
55078;SDS011;55187;49.496;6.010;2022-10-16T08:28:33;4.65;;;1.10;;
55078;SDS011;55187;49.496;6.010;2022-10-16T08:31:04;1.52;;;0.70;;
55078;SDS011;55187;49.496;6.010;2022-10-16T08:33:37;1.85;;;1.20;;
55078;SDS011;55187;49.496;6.010;2022-10-16T08:36:05;3.42;;;1.60;;
55078;SDS011;55187;49.496;6.010;2022-10-16T08:38:32;2.83;;;1.23;;
55078;SDS011;55187;49.496;6.010;2022-10-16T08:41:13;3.55;;;1.80;;
55078;SDS011;55187;49.496;6.010;2022-10-16T08:43:59;7.15;;;2.13;;
55078;SDS011;55187;49.496;6.010;2022-10-16T08:49:28;4.05;;;1.67;;
55078;SDS011;55187;49.496;6.010;2022-10-16T08:51:56;1.77;;;1.55;;
55078;SDS011;55187;49.496;6.010;2022-10-16T08:54:34;3.60;;;1.50;;
55078;SDS011;55187;49.496;6.010;2022-10-16T08:59:48;8.82;;;1.30;;
55078;SDS011;55187;49.496;6.010;2022-10-16T09:02:26;3.80;;;1.38;;
55078;SDS011;55187;49.496;6.010;2022-10-16T09:05:15;17.75;;;3.40;;
55078;SDS011;55187;49.496;6.010;2022-10-16T09:07:55;2.13;;;1.27;;
55078;SDS011;55187;49.496;6.010;2022-10-16T09:10:38;2.88;;;1.52;;
55078;SDS011;55187;49.496;6.010;2022-10-16T09:18:58;1.52;;;0.82;;
55078;SDS011;55187;49.496;6.010;2022-10-16T09:21:31;2.22;;;1.35;;
55078;SDS011;55187;49.496;6.010;2022-10-16T09:24:07;0.52;;;0.45;;
55078;SDS011;55187;49.496;6.010;2022-10-16T09:26:39;0.88;;;0.60;;
55078;SDS011;55187;49.496;6.010;2022-10-16T09:29:05;1.00;;;0.40;;
55078;SDS011;55187;49.496;6.010;2022-10-16T09:31:36;1.13;;;0.65;;
55078;SDS011;55187;49.496;6.010;2022-10-16T09:34:03;2.28;;;1.17;;
55078;SDS011;55187;49.496;6.010;2022-10-16T09:36:36;1.15;;;0.50;;
55078;SDS011;55187;49.496;6.010;2022-10-16T09:39:08;0.70;;;0.70;;
55078;SDS011;55187;49.496;6.010;2022-10-16T09:41:37;6.05;;;0.90;;
55078;SDS011;55187;49.496;6.010;2022-10-16T09:44:15;0.57;;;0.50;;
55078;SDS011;55187;49.496;6.010;2022-10-16T09:47:05;1.33;;;0.60;;
55078;SDS011;55187;49.496;6.010;2022-10-16T09:49:53;1.27;;;0.88;;
55078;SDS011;55187;49.496;6.010;2022-10-16T09:52:23;1.00;;;0.60;;
55078;SDS011;55187;49.496;6.010;2022-10-16T09:55:15;1.83;;;0.50;;
55078;SDS011;55187;49.496;6.010;2022-10-16T09:58:35;0.98;;;0.40;;
55078;SDS011;55187;49.496;6.010;2022-10-16T10:01:03;0.30;;;0.20;;
55078;SDS011;55187;49.496;6.010;2022-10-16T10:03:33;1.67;;;0.50;;
55078;SDS011;55187;49.496;6.010;2022-10-16T10:06:14;0.70;;;0.70;;
55078;SDS011;55187;49.496;6.010;2022-10-16T10:08:56;3.45;;;0.47;;
55078;SDS011;55187;49.496;6.010;2022-10-16T10:14:18;0.73;;;0.70;;
55078;SDS011;55187;49.496;6.010;2022-10-16T10:16:48;0.40;;;0.38;;
55078;SDS011;55187;49.496;6.010;2022-10-16T10:19:19;1.27;;;0.70;;
55078;SDS011;55187;49.496;6.010;2022-10-16T10:21:48;0.93;;;0.70;;
55078;SDS011;55187;49.496;6.010;2022-10-16T10:24:16;1.65;;;0.95;;
55078;SDS011;55187;49.496;6.010;2022-10-16T10:26:47;3.92;;;1.38;;
55078;SDS011;55187;49.496;6.010;2022-10-16T10:29:33;4.28;;;0.88;;
55078;SDS011;55187;49.496;6.010;2022-10-16T10:38:04;5.22;;;1.88;;
55078;SDS011;55187;49.496;6.010;2022-10-16T10:40:49;1.45;;;0.90;;
55078;SDS011;55187;49.496;6.010;2022-10-16T10:46:23;2.30;;;1.25;;
55078;SDS011;55187;49.496;6.010;2022-10-16T10:49:14;2.97;;;1.20;;
55078;SDS011;55187;49.496;6.010;2022-10-16T10:52:03;1.60;;;0.93;;
55078;SDS011;55187;49.496;6.010;2022-10-16T10:57:39;2.50;;;1.35;;
55078;SDS011;55187;49.496;6.010;2022-10-16T11:00:21;3.55;;;1.50;;
55078;SDS011;55187;49.496;6.010;2022-10-16T11:06:05;2.75;;;1.40;;
55078;SDS011;55187;49.496;6.010;2022-10-16T11:08:35;1.80;;;1.50;;
55078;SDS011;55187;49.496;6.010;2022-10-16T11:11:15;6.05;;;1.98;;
55078;SDS011;55187;49.496;6.010;2022-10-16T11:13:58;5.72;;;1.75;;
55078;SDS011;55187;49.496;6.010;2022-10-16T11:24:59;4.05;;;1.40;;
55078;SDS011;55187;49.496;6.010;2022-10-16T11:27:41;3.00;;;2.00;;
55078;SDS011;55187;49.496;6.010;2022-10-16T11:30:21;2.92;;;1.60;;
55078;SDS011;55187;49.496;6.010;2022-10-16T11:35:25;3.60;;;1.58;;
55078;SDS011;55187;49.496;6.010;2022-10-16T11:37:58;4.15;;;2.28;;
55078;SDS011;55187;49.496;6.010;2022-10-16T11:40:34;7.38;;;1.80;;
55078;SDS011;55187;49.496;6.010;2022-10-16T11:45:54;3.92;;;2.03;;
55078;SDS011;55187;49.496;6.010;2022-10-16T11:48:30;6.25;;;2.40;;
55078;SDS011;55187;49.496;6.010;2022-10-16T11:53:59;6.80;;;3.80;;
55078;SDS011;55187;49.496;6.010;2022-10-16T11:56:35;3.88;;;2.17;;
55078;SDS011;55187;49.496;6.010;2022-10-16T11:59:07;3.78;;;2.30;;
55078;SDS011;55187;49.496;6.010;2022-10-16T12:01:53;6.55;;;3.25;;
55078;SDS011;55187;49.496;6.010;2022-10-16T12:04:36;6.97;;;3.88;;
55078;SDS011;55187;49.496;6.010;2022-10-16T12:07:12;5.55;;;3.67;;
55078;SDS011;55187;49.496;6.010;2022-10-16T12:09:46;5.80;;;3.90;;
55078;SDS011;55187;49.496;6.010;2022-10-16T12:17:54;6.55;;;3.28;;
55078;SDS011;55187;49.496;6.010;2022-10-16T12:20:23;6.60;;;3.95;;
55078;SDS011;55187;49.496;6.010;2022-10-16T12:22:59;5.68;;;3.42;;
55078;SDS011;55187;49.496;6.010;2022-10-16T12:25:31;5.82;;;3.78;;
55078;SDS011;55187;49.496;6.010;2022-10-16T12:28:04;5.07;;;3.08;;
55078;SDS011;55187;49.496;6.010;2022-10-16T12:30:52;4.82;;;3.22;;
55078;SDS011;55187;49.496;6.010;2022-10-16T12:33:35;8.32;;;3.83;;
55078;SDS011;55187;49.496;6.010;2022-10-16T12:36:04;6.78;;;2.92;;
55078;SDS011;55187;49.496;6.010;2022-10-16T12:38:46;6.07;;;3.65;;
55078;SDS011;55187;49.496;6.010;2022-10-16T12:43:58;6.35;;;3.45;;
55078;SDS011;55187;49.496;6.010;2022-10-16T12:46:36;8.27;;;3.97;;
55078;SDS011;55187;49.496;6.010;2022-10-16T12:49:15;9.95;;;5.00;;
55078;SDS011;55187;49.496;6.010;2022-10-16T12:51:48;9.37;;;4.13;;
55078;SDS011;55187;49.496;6.010;2022-10-16T12:54:19;7.78;;;5.00;;
55078;SDS011;55187;49.496;6.010;2022-10-16T12:59:42;6.95;;;4.25;;
55078;SDS011;55187;49.496;6.010;2022-10-16T13:02:31;6.13;;;4.03;;
55078;SDS011;55187;49.496;6.010;2022-10-16T13:05:17;11.00;;;5.15;;
55078;SDS011;55187;49.496;6.010;2022-10-16T13:11:04;11.15;;;4.72;;
55078;SDS011;55187;49.496;6.010;2022-10-16T13:17:01;8.30;;;5.07;;
55078;SDS011;55187;49.496;6.010;2022-10-16T13:22:35;13.07;;;6.63;;
55078;SDS011;55187;49.496;6.010;2022-10-16T13:25:23;9.63;;;6.20;;
55078;SDS011;55187;49.496;6.010;2022-10-16T13:28:09;17.85;;;6.78;;
55078;SDS011;55187;49.496;6.010;2022-10-16T13:30:42;18.33;;;8.05;;
55078;SDS011;55187;49.496;6.010;2022-10-16T13:33:24;13.85;;;8.38;;
55078;SDS011;55187;49.496;6.010;2022-10-16T13:35:59;16.92;;;8.35;;
55078;SDS011;55187;49.496;6.010;2022-10-16T13:38:32;18.52;;;8.10;;
55078;SDS011;55187;49.496;6.010;2022-10-16T13:41:02;13.80;;;6.70;;
55078;SDS011;55187;49.496;6.010;2022-10-16T13:43:33;10.68;;;6.30;;
55078;SDS011;55187;49.496;6.010;2022-10-16T13:46:04;14.93;;;7.47;;
55078;SDS011;55187;49.496;6.010;2022-10-16T13:48:33;15.77;;;8.20;;
55078;SDS011;55187;49.496;6.010;2022-10-16T13:51:01;12.73;;;7.78;;
55078;SDS011;55187;49.496;6.010;2022-10-16T13:53:30;13.88;;;7.40;;
55078;SDS011;55187;49.496;6.010;2022-10-16T13:55:58;15.55;;;8.25;;
55078;SDS011;55187;49.496;6.010;2022-10-16T13:58:26;15.63;;;8.68;;
55078;SDS011;55187;49.496;6.010;2022-10-16T14:00:53;13.75;;;8.27;;
55078;SDS011;55187;49.496;6.010;2022-10-16T14:03:22;13.02;;;7.25;;
55078;SDS011;55187;49.496;6.010;2022-10-16T14:05:51;16.30;;;8.45;;
55078;SDS011;55187;49.496;6.010;2022-10-16T14:08:19;14.15;;;8.77;;
55078;SDS011;55187;49.496;6.010;2022-10-16T14:10:48;17.00;;;8.20;;
55078;SDS011;55187;49.496;6.010;2022-10-16T14:13:18;14.32;;;6.88;;
55078;SDS011;55187;49.496;6.010;2022-10-16T14:15:49;12.82;;;7.28;;
55078;SDS011;55187;49.496;6.010;2022-10-16T14:18:19;11.88;;;7.70;;
55078;SDS011;55187;49.496;6.010;2022-10-16T14:20:49;14.80;;;8.60;;
55078;SDS011;55187;49.496;6.010;2022-10-16T14:23:21;10.70;;;6.75;;
55078;SDS011;55187;49.496;6.010;2022-10-16T14:26:05;14.95;;;8.05;;
55078;SDS011;55187;49.496;6.010;2022-10-16T14:28:32;17.80;;;8.75;;
55078;SDS011;55187;49.496;6.010;2022-10-16T14:30:59;15.13;;;7.55;;
55078;SDS011;55187;49.496;6.010;2022-10-16T14:33:33;12.55;;;7.40;;
55078;SDS011;55187;49.496;6.010;2022-10-16T14:36:04;11.35;;;7.18;;
55078;SDS011;55187;49.496;6.010;2022-10-16T14:38:38;11.32;;;6.57;;
55078;SDS011;55187;49.496;6.010;2022-10-16T14:41:08;13.02;;;6.18;;
55078;SDS011;55187;49.496;6.010;2022-10-16T14:43:39;9.10;;;5.55;;
55078;SDS011;55187;49.496;6.010;2022-10-16T14:46:18;18.45;;;8.20;;
55078;SDS011;55187;49.496;6.010;2022-10-16T14:48:47;9.80;;;5.72;;
55078;SDS011;55187;49.496;6.010;2022-10-16T14:51:17;12.40;;;6.70;;
55078;SDS011;55187;49.496;6.010;2022-10-16T14:53:45;10.20;;;6.32;;
55078;SDS011;55187;49.496;6.010;2022-10-16T14:56:15;15.95;;;8.05;;
55078;SDS011;55187;49.496;6.010;2022-10-16T14:58:47;20.60;;;8.75;;
55078;SDS011;55187;49.496;6.010;2022-10-16T15:01:15;19.23;;;8.68;;
55078;SDS011;55187;49.496;6.010;2022-10-16T15:03:42;15.25;;;7.93;;
55078;SDS011;55187;49.496;6.010;2022-10-16T15:06:12;13.77;;;7.63;;
55078;SDS011;55187;49.496;6.010;2022-10-16T15:08:40;14.90;;;9.02;;
55078;SDS011;55187;49.496;6.010;2022-10-16T15:11:14;11.52;;;6.93;;
55078;SDS011;55187;49.496;6.010;2022-10-16T15:13:42;13.18;;;6.95;;
55078;SDS011;55187;49.496;6.010;2022-10-16T15:16:12;10.05;;;6.68;;
55078;SDS011;55187;49.496;6.010;2022-10-16T15:18:49;14.10;;;5.75;;
55078;SDS011;55187;49.496;6.010;2022-10-16T15:21:26;8.05;;;5.25;;
55078;SDS011;55187;49.496;6.010;2022-10-16T15:23:56;6.80;;;4.68;;
55078;SDS011;55187;49.496;6.010;2022-10-16T15:26:24;10.60;;;5.30;;
55078;SDS011;55187;49.496;6.010;2022-10-16T15:28:52;8.32;;;4.88;;
55078;SDS011;55187;49.496;6.010;2022-10-16T15:31:19;9.25;;;4.85;;
55078;SDS011;55187;49.496;6.010;2022-10-16T15:33:49;8.43;;;5.13;;
55078;SDS011;55187;49.496;6.010;2022-10-16T15:36:24;8.02;;;5.60;;
55078;SDS011;55187;49.496;6.010;2022-10-16T15:38:56;7.22;;;4.53;;
55078;SDS011;55187;49.496;6.010;2022-10-16T15:41:22;11.45;;;4.82;;
55078;SDS011;55187;49.496;6.010;2022-10-16T15:43:49;11.63;;;5.00;;
55078;SDS011;55187;49.496;6.010;2022-10-16T15:46:20;10.52;;;4.53;;
55078;SDS011;55187;49.496;6.010;2022-10-16T15:48:48;10.50;;;4.00;;
55078;SDS011;55187;49.496;6.010;2022-10-16T15:51:15;6.63;;;3.95;;
55078;SDS011;55187;49.496;6.010;2022-10-16T15:53:43;11.38;;;4.03;;
55078;SDS011;55187;49.496;6.010;2022-10-16T15:56:12;9.15;;;4.88;;
55078;SDS011;55187;49.496;6.010;2022-10-16T15:58:41;10.73;;;4.55;;
55078;SDS011;55187;49.496;6.010;2022-10-16T16:01:08;8.00;;;4.72;;
55078;SDS011;55187;49.496;6.010;2022-10-16T16:03:36;7.03;;;5.18;;
55078;SDS011;55187;49.496;6.010;2022-10-16T16:06:07;7.38;;;4.93;;
55078;SDS011;55187;49.496;6.010;2022-10-16T16:08:35;8.80;;;4.93;;
55078;SDS011;55187;49.496;6.010;2022-10-16T16:11:03;10.63;;;4.40;;
55078;SDS011;55187;49.496;6.010;2022-10-16T16:13:31;10.27;;;5.10;;
55078;SDS011;55187;49.496;6.010;2022-10-16T16:15:57;7.72;;;4.65;;
55078;SDS011;55187;49.496;6.010;2022-10-16T16:18:26;12.70;;;5.72;;